createdAt,value
2023-06-01T00:00:16.354Z,78.4
2023-06-01T00:03:04.543Z,79
2023-06-01T00:05:52.318Z,79.4
2023-06-01T00:08:39.973Z,79.5
2023-06-01T00:11:28.048Z,79.8
2023-06-01T00:14:15.699Z,80.1
2023-06-01T00:17:03.609Z,80.6
2023-06-01T00:19:51.343Z,80.6
2023-06-01T00:22:38.976Z,81.2
2023-06-01T00:25:26.652Z,82
2023-06-01T00:28:14.228Z,81.4
2023-06-01T00:31:02.624Z,82.3
2023-06-01T00:33:50.750Z,82.7
2023-06-01T00:36:38.432Z,83.2
2023-06-01T00:39:26.078Z,83.2
2023-06-01T00:42:13.929Z,83.7
2023-06-01T00:45:01.711Z,84.3
2023-06-01T00:47:49.594Z,84.6
2023-06-01T00:50:37.388Z,85
2023-06-01T00:53:25.044Z,85
2023-06-01T00:56:12.776Z,85.3
2023-06-01T00:59:00.454Z,85.3
2023-06-01T01:01:48.876Z,86.2
2023-06-01T01:04:36.835Z,86.2
2023-06-01T01:07:24.578Z,85.9
2023-06-01T01:10:12.265Z,85.7
2023-06-01T01:12:59.877Z,86.4
2023-06-01T01:15:47.617Z,87
2023-06-01T01:18:35.449Z,87.7
2023-06-01T01:21:23.528Z,87.3
2023-06-01T01:24:11.320Z,87.6
2023-06-01T01:26:59.032Z,87.5
2023-06-01T01:29:46.715Z,87.3
2023-06-01T01:32:34.426Z,87.7
2023-06-01T01:35:22.143Z,88.2
2023-06-01T01:38:09.927Z,88.7
2023-06-01T01:40:57.674Z,89.3
2023-06-01T01:43:45.427Z,89.9
2023-06-01T01:46:33.193Z,90.2
2023-06-01T01:49:20.940Z,90
2023-06-01T01:52:08.641Z,90.3
2023-06-01T01:54:56.388Z,90.5
2023-06-01T01:57:44.111Z,90.8
2023-06-01T02:00:31.949Z,91.3
2023-06-01T02:03:19.997Z,91.4
2023-06-01T02:06:07.827Z,91.4
2023-06-01T02:08:55.475Z,91.6
2023-06-01T02:11:43.225Z,92.1
2023-06-01T02:14:30.906Z,92.3
2023-06-01T02:17:18.841Z,92.1
2023-06-01T02:20:06.469Z,92.7
2023-06-01T02:22:54.162Z,92.9
2023-06-01T02:25:41.747Z,93.2
2023-06-01T02:28:29.541Z,93.5
2023-06-01T02:31:17.275Z,93.8
2023-06-01T02:34:07.180Z,94
2023-06-01T02:36:54.858Z,94.1
2023-06-01T02:39:42.853Z,94.4
2023-06-01T02:42:30.634Z,93.9
2023-06-01T02:45:18.483Z,94.6
2023-06-01T02:48:06.379Z,94.7
2023-06-01T02:50:54.286Z,95.2
2023-06-01T02:53:42.118Z,95.3
2023-06-01T02:56:29.855Z,95.4
2023-06-01T02:59:17.614Z,96
2023-06-01T03:02:05.380Z,96
2023-06-01T03:04:53.150Z,96.6
2023-06-01T03:07:40.836Z,97.1
2023-06-01T03:10:28.573Z,96.9
2023-06-01T03:13:16.218Z,96.9
2023-06-01T03:16:04.263Z,96.7
2023-06-01T03:18:52.278Z,96.6
2023-06-01T03:21:40.022Z,96.6
2023-06-01T03:24:27.753Z,96.2
2023-06-01T03:27:15.319Z,95.9
2023-06-01T03:30:03.094Z,95.3
2023-06-01T03:32:50.890Z,94.8
2023-06-01T03:35:38.785Z,94.3
2023-06-01T03:38:26.549Z,94.1
2023-06-01T03:41:14.346Z,93.9
2023-06-01T03:44:02.068Z,93.9
2023-06-01T03:46:50.009Z,93.7
2023-06-01T03:49:37.808Z,93.5
2023-06-01T03:52:25.625Z,93.4
2023-06-01T03:55:13.362Z,93.3
2023-06-01T03:58:01.081Z,93.2
2023-06-01T04:00:49.282Z,92.9
2023-06-01T04:03:37.849Z,92.8
2023-06-01T04:06:25.711Z,92.7
2023-06-01T04:09:13.440Z,92.6
2023-06-01T04:12:01.168Z,92.5
2023-06-01T04:14:48.805Z,92.6
2023-06-01T04:17:36.953Z,92.4
2023-06-01T04:20:24.942Z,92.4
2023-06-01T04:23:12.664Z,92
2023-06-01T04:26:00.546Z,91.8
2023-06-01T04:28:48.326Z,91.6
2023-06-01T04:31:36.145Z,91.5
2023-06-01T04:34:23.895Z,91.2
2023-06-01T04:37:11.884Z,90.9
2023-06-01T04:39:59.714Z,90.5
2023-06-01T04:42:47.344Z,90
2023-06-01T04:45:35.225Z,89.8
2023-06-01T04:48:23.044Z,89.5
2023-06-01T04:51:10.649Z,89.4
2023-06-01T04:53:58.580Z,89
2023-06-01T04:56:46.306Z,88.4
2023-06-01T04:59:34.037Z,88
2023-06-01T05:02:21.670Z,87.6
2023-06-01T05:05:09.438Z,87.5
2023-06-01T05:07:57.289Z,87.2
2023-06-01T05:10:45.226Z,87
2023-06-01T05:13:33.082Z,87
2023-06-01T05:16:21.040Z,87
2023-06-01T05:19:08.829Z,86.7
2023-06-01T05:21:56.798Z,85.8
2023-06-01T05:24:44.553Z,84.7
2023-06-01T05:27:32.448Z,84.5
2023-06-01T05:30:20.274Z,84.2
2023-06-01T05:33:08.142Z,83.4
2023-06-01T05:35:55.872Z,83.2
2023-06-01T05:38:43.673Z,82.9
2023-06-01T05:41:31.786Z,82.6
2023-06-01T05:44:19.803Z,82.6
2023-06-01T05:47:07.477Z,82.1
2023-06-01T05:49:55.176Z,81.4
2023-06-01T05:52:42.900Z,81
2023-06-01T05:55:30.631Z,81.1
2023-06-01T05:58:18.552Z,80.6
2023-06-01T06:01:06.499Z,80.4
2023-06-01T06:03:54.456Z,80.4
2023-06-01T06:06:42.320Z,80.4
2023-06-01T06:09:30.054Z,79.7
2023-06-01T06:12:17.733Z,79.5
2023-06-01T06:15:05.594Z,79.2
2023-06-01T06:17:53.538Z,79
2023-06-01T06:20:41.439Z,78.4
2023-06-01T06:23:29.172Z,78.2
2023-06-01T06:26:16.779Z,77.7
2023-06-01T06:29:04.533Z,77
2023-06-01T06:31:52.543Z,76.8
2023-06-01T06:34:40.407Z,76.5
2023-06-01T06:37:28.090Z,75.8
2023-06-01T06:40:16.004Z,75.6
2023-06-01T06:43:03.836Z,75.8
2023-06-01T06:45:51.489Z,74.6
2023-06-01T06:48:39.273Z,74
2023-06-01T06:51:27.031Z,73.7
2023-06-01T06:54:14.795Z,73.6
2023-06-01T06:57:02.623Z,73.1
2023-06-01T06:59:50.236Z,72.5
2023-06-01T07:02:38.233Z,74.4
2023-06-01T07:05:26.169Z,72.9
2023-06-01T07:08:14.008Z,72.3
2023-06-01T07:11:02.319Z,67.2
2023-06-01T07:13:50.234Z,62.7
2023-06-01T07:16:38.191Z,62.1
2023-06-01T07:19:26.270Z,61.6
2023-06-01T07:22:14.095Z,60.1
2023-06-01T07:25:01.989Z,59.2
2023-06-01T07:27:49.633Z,58.9
2023-06-01T07:30:37.398Z,57
2023-06-01T07:33:25.381Z,55.6
2023-06-01T07:36:13.164Z,55.4
2023-06-01T07:39:00.741Z,55.7
2023-06-01T07:41:48.733Z,55.4
2023-06-01T07:44:36.669Z,55.3
2023-06-01T07:47:24.948Z,55.1
2023-06-01T07:50:12.854Z,52.8
2023-06-01T07:53:00.782Z,51.6
2023-06-01T07:55:48.478Z,53
2023-06-01T07:58:36.395Z,52.1
2023-06-01T08:01:24.104Z,51.7
2023-06-01T08:04:11.961Z,49.7
2023-06-01T08:06:59.752Z,49.4
2023-06-01T08:09:47.586Z,49
2023-06-01T08:12:35.528Z,46.9
2023-06-01T08:15:23.305Z,48.1
2023-06-01T08:18:11.241Z,48.6
2023-06-01T08:20:59.024Z,48.6
2023-06-01T08:23:46.705Z,47.9
2023-06-01T08:26:34.460Z,48.2
2023-06-01T08:29:41.775Z,46.6
2023-06-01T08:32:30.185Z,46.3
2023-06-01T08:35:17.906Z,46.9
2023-06-01T08:38:05.763Z,46.5
2023-06-01T08:40:53.378Z,45.4
2023-06-01T08:43:41.237Z,45.4
2023-06-01T08:46:29.313Z,45.4
2023-06-01T08:49:16.976Z,43.8
2023-06-01T08:52:04.550Z,43.7
2023-06-01T08:54:52.333Z,43.7
2023-06-01T08:57:39.914Z,43.4
2023-06-01T09:00:27.643Z,43.4
2023-06-01T09:03:15.580Z,43.3
2023-06-01T09:06:03.633Z,42.7
2023-06-01T09:08:51.915Z,41.5
2023-06-01T09:11:39.673Z,41.9
2023-06-01T09:14:27.339Z,41.9
2023-06-01T09:17:15.166Z,41.2
2023-06-01T09:20:02.854Z,41.1
2023-06-01T09:22:50.575Z,40.7
2023-06-01T09:25:38.218Z,39.4
2023-06-01T09:28:25.991Z,38.9
2023-06-01T09:31:13.726Z,39.1
2023-06-01T09:34:01.502Z,38.7
2023-06-01T09:36:49.189Z,38.9
2023-06-01T09:39:36.970Z,38.5
2023-06-01T09:42:24.578Z,38.5
2023-06-01T09:45:12.280Z,38.6
2023-06-01T09:48:00.379Z,37.7
2023-06-01T09:50:48.008Z,37.9
2023-06-01T09:53:35.726Z,37.4
2023-06-01T09:56:23.511Z,37.2
2023-06-01T09:59:11.047Z,37.5
2023-06-01T10:01:58.925Z,38.3
2023-06-01T10:04:46.596Z,38.4
2023-06-01T10:07:34.230Z,38.7
2023-06-01T10:10:21.930Z,37.8
2023-06-01T10:13:09.999Z,37.7
2023-06-01T10:16:00.722Z,37.5
2023-06-01T10:18:48.687Z,36.9
2023-06-01T10:21:36.464Z,37.4
2023-06-01T10:24:24.254Z,37.5
2023-06-01T10:27:11.838Z,37.2
2023-06-01T10:29:59.469Z,36.1
2023-06-01T10:32:47.318Z,36
2023-06-01T10:35:35.027Z,36.4
2023-06-01T10:38:22.656Z,36
2023-06-01T10:41:10.391Z,35.6
2023-06-01T10:43:58.055Z,36.1
2023-06-01T10:46:46.640Z,35.1
2023-06-01T10:49:34.557Z,35.6
2023-06-01T10:52:22.141Z,35.8
2023-06-01T10:55:09.842Z,35.8
2023-06-01T10:57:57.610Z,35.5
2023-06-01T11:00:48.314Z,35
2023-06-01T11:03:36.646Z,33.5
2023-06-01T11:06:24.281Z,34.6
2023-06-01T11:09:11.927Z,34.7
2023-06-01T11:11:59.798Z,34.5
2023-06-01T11:14:47.749Z,34.7
2023-06-01T11:17:35.459Z,34.1
2023-06-01T11:20:23.173Z,34.9
2023-06-01T11:23:10.812Z,34.7
2023-06-01T11:25:58.559Z,34.9
2023-06-01T11:28:46.115Z,34.1
2023-06-01T11:31:34.393Z,34.1
2023-06-01T11:34:22.316Z,34.6
2023-06-01T11:37:09.951Z,33.9
2023-06-01T11:39:57.624Z,33.7
2023-06-01T11:42:45.319Z,33.3
2023-06-01T11:45:32.960Z,33.7
2023-06-01T11:48:21.604Z,33
2023-06-01T11:51:09.244Z,32.4
2023-06-01T11:53:56.977Z,33.1
2023-06-01T11:56:44.600Z,33.5
2023-06-01T11:59:32.310Z,33.5
2023-06-01T12:02:20.100Z,32.9
2023-06-01T12:05:08.190Z,32.8
2023-06-01T12:07:55.950Z,32.3
2023-06-01T12:10:43.574Z,33
2023-06-01T12:13:31.331Z,32.5
2023-06-01T12:16:23.054Z,32.2
2023-06-01T12:19:11.331Z,33
2023-06-01T12:21:59.519Z,32.6
2023-06-01T12:24:47.469Z,32.3
2023-06-01T12:27:35.241Z,32.9
2023-06-01T12:30:22.869Z,32
2023-06-01T12:33:10.797Z,31.7
2023-06-01T12:35:58.519Z,32
2023-06-01T12:38:46.297Z,32.1
2023-06-01T12:41:34.172Z,32.2
2023-06-01T12:44:22.063Z,32.2
2023-06-01T12:47:09.607Z,32.1
2023-06-01T12:49:57.369Z,32.2
2023-06-01T12:52:45.015Z,32.1
2023-06-01T12:55:32.933Z,31.5
2023-06-01T12:58:20.557Z,31.9
2023-06-01T13:01:19.006Z,32
2023-06-01T13:04:07.184Z,32.1
2023-06-01T13:06:54.920Z,31.7
2023-06-01T13:09:42.355Z,30.9
2023-06-01T13:12:30.100Z,30.7
2023-06-01T13:15:17.859Z,30.8
2023-06-01T13:18:05.797Z,31.5
2023-06-01T13:20:53.482Z,31.4
2023-06-01T13:23:41.162Z,31.3
2023-06-01T13:26:29.105Z,30.9
2023-06-01T13:29:16.780Z,30.2
2023-06-01T13:32:04.579Z,30.9
2023-06-01T13:34:52.243Z,30
2023-06-01T13:37:39.879Z,30
2023-06-01T13:40:27.605Z,30.5
2023-06-01T13:43:15.614Z,30.2
2023-06-01T13:46:04.089Z,29.7
2023-06-01T13:48:52.140Z,30.3
2023-06-01T13:51:39.862Z,30.3
2023-06-01T13:54:27.497Z,30.5
2023-06-01T13:57:15.430Z,29.7
2023-06-01T14:00:03.166Z,30.4
2023-06-01T14:02:51.243Z,30.1
2023-06-01T14:05:56.484Z,30.7
2023-06-01T14:08:45.301Z,30.7
2023-06-01T14:11:33.037Z,30.4
2023-06-01T14:14:20.771Z,30.5
2023-06-01T14:17:08.611Z,30.3
2023-06-01T14:19:56.638Z,31.3
2023-06-01T14:22:44.796Z,30.7
2023-06-01T14:25:32.713Z,30.9
2023-06-01T14:28:20.374Z,30.8
2023-06-01T14:31:08.318Z,30.8
2023-06-01T14:33:56.189Z,30.4
2023-06-01T14:36:48.009Z,29.7
2023-06-01T14:39:41.567Z,30.1
2023-06-01T14:42:29.352Z,30.3
2023-06-01T14:45:33.262Z,30.3
2023-06-01T14:48:21.161Z,30.6
2023-06-01T14:51:08.985Z,30.5
2023-06-01T14:53:56.884Z,30.2
2023-06-01T14:56:44.603Z,30
2023-06-01T14:59:32.327Z,30.5
2023-06-01T15:02:19.950Z,30.3
2023-06-01T15:05:07.692Z,30.3
2023-06-01T15:07:55.369Z,29.2
2023-06-01T15:10:43.035Z,29.7
2023-06-01T15:13:30.633Z,29.8
2023-06-01T15:16:18.313Z,29.8
2023-06-01T15:19:06.056Z,30.4
2023-06-01T15:21:53.903Z,30.2
2023-06-01T15:24:41.552Z,29.4
2023-06-01T15:27:29.232Z,29.7
2023-06-01T15:30:16.974Z,30.3
2023-06-01T15:33:09.569Z,30.2
2023-06-01T15:35:57.394Z,29.7
2023-06-01T15:38:45.030Z,29.7
2023-06-01T15:41:33.126Z,30.5
2023-06-01T15:44:21.003Z,30.6
2023-06-01T15:47:08.739Z,30.7
2023-06-01T15:49:56.318Z,31.2
2023-06-01T15:52:44.068Z,31.2
2023-06-01T15:55:31.786Z,31.5
2023-06-01T15:58:19.356Z,32.4
2023-06-01T16:01:18.569Z,31.3
2023-06-01T16:04:11.292Z,31.3
2023-06-01T16:06:59.029Z,31.1
2023-06-01T16:09:48.633Z,31
2023-06-01T16:12:37.553Z,31
2023-06-01T16:15:25.200Z,31.4
2023-06-01T16:18:13.128Z,31.4
2023-06-01T16:21:01.724Z,31.2
2023-06-01T16:23:49.592Z,31.1
2023-06-01T16:26:37.261Z,31.5
2023-06-01T16:29:25.073Z,32
2023-06-01T16:32:13.048Z,32.4
2023-06-01T16:35:00.666Z,33.2
2023-06-01T16:37:48.340Z,33.9
2023-06-01T16:40:36.075Z,34.7
2023-06-01T16:43:23.827Z,35.4
2023-06-01T16:46:11.926Z,36
2023-06-01T16:48:59.845Z,37.1
2023-06-01T16:51:47.923Z,37.7
2023-06-01T16:54:35.720Z,38.2
2023-06-01T16:57:23.660Z,38.6
2023-06-01T17:00:12.116Z,39
2023-06-01T17:03:00.355Z,39.1
2023-06-01T17:05:48.067Z,39.6
2023-06-01T17:08:35.845Z,39.5
2023-06-01T17:11:23.687Z,39.6
2023-06-01T17:14:11.467Z,39.7
2023-06-01T17:16:59.572Z,40.7
2023-06-01T17:19:47.548Z,41.2
2023-06-01T17:22:35.335Z,41.7
2023-06-01T17:25:23.419Z,42.5
2023-06-01T17:28:11.814Z,43
2023-06-01T17:31:00.499Z,43.3
2023-06-01T17:33:48.251Z,43.7
2023-06-01T17:36:36.084Z,43.8
2023-06-01T17:39:23.776Z,44
2023-06-01T17:42:11.479Z,44.2
2023-06-01T17:44:59.197Z,44.7
2023-06-01T17:47:47.157Z,45.2
2023-06-01T17:50:34.913Z,45.4
2023-06-01T17:53:42.045Z,46
2023-06-01T17:56:30.945Z,46.7
2023-06-01T17:59:18.608Z,47.3
2023-06-01T18:02:06.528Z,47.5
2023-06-01T18:04:54.300Z,48.2
2023-06-01T18:07:41.928Z,48.4
2023-06-01T18:10:29.659Z,48.9
2023-06-01T18:13:17.213Z,49.3
2023-06-01T18:16:10.303Z,49.8
2023-06-01T18:18:58.487Z,50.3
2023-06-01T18:21:46.542Z,50.1
2023-06-01T18:24:34.421Z,50.5
2023-06-01T18:27:22.253Z,50.5
2023-06-01T18:30:09.913Z,50.7
2023-06-01T18:32:57.877Z,50.7
2023-06-01T18:35:45.517Z,51
2023-06-01T18:38:33.272Z,51.3
2023-06-01T18:41:20.901Z,51.6
2023-06-01T18:44:08.634Z,53.1
2023-06-01T18:46:56.665Z,54.8
2023-06-01T18:49:44.677Z,55.9
2023-06-01T18:52:32.338Z,57.2
2023-06-01T18:55:20.607Z,58.5
2023-06-01T18:58:08.406Z,59.5
2023-06-01T19:00:56.331Z,61
2023-06-01T19:03:43.980Z,61.5
2023-06-01T19:06:32.133Z,62
2023-06-01T19:09:19.859Z,62.7
2023-06-01T19:12:07.902Z,62.9
2023-06-01T19:14:55.652Z,63
2023-06-01T19:17:43.544Z,63.9
2023-06-01T19:20:31.230Z,64
2023-06-01T19:23:18.924Z,64.9
2023-06-01T19:26:06.786Z,64.8
2023-06-01T19:28:54.594Z,65
2023-06-01T19:31:42.458Z,65.6
2023-06-01T19:34:30.260Z,66.5
2023-06-01T19:37:17.891Z,67.1
2023-06-01T19:40:05.571Z,67
2023-06-01T19:42:53.293Z,67.3
2023-06-01T19:45:41.017Z,66.9
2023-06-01T19:48:28.976Z,67
2023-06-01T19:51:16.658Z,67.7
2023-06-01T19:54:04.373Z,68.7
2023-06-01T19:56:52.221Z,69.2
2023-06-01T19:59:39.909Z,69.5
2023-06-01T20:02:27.915Z,69.9
2023-06-01T20:05:15.562Z,70.3
2023-06-01T20:08:03.320Z,71.3
2023-06-01T20:10:50.995Z,71.6
2023-06-01T20:13:38.805Z,71.6
2023-06-01T20:16:26.522Z,71.5
2023-06-01T20:19:14.308Z,72.5
2023-06-01T20:22:02.540Z,72.8
2023-06-01T20:24:50.260Z,72.8
2023-06-01T20:27:38.044Z,73.5
2023-06-01T20:30:25.933Z,73.4
2023-06-01T20:33:13.570Z,73.9
2023-06-01T20:36:04.836Z,74.5
2023-06-01T20:38:52.660Z,75
2023-06-01T20:41:40.505Z,74
2023-06-01T20:44:28.183Z,74.8
2023-06-01T20:47:18.073Z,74.4
2023-06-01T20:50:06.104Z,75.2
2023-06-01T20:52:53.724Z,75.2
2023-06-01T20:55:41.385Z,75.5
2023-06-01T20:58:28.986Z,76.1
2023-06-01T21:01:16.901Z,76.2
2023-06-01T21:04:04.565Z,76.6
2023-06-01T21:06:52.386Z,76.6
2023-06-01T21:09:40.117Z,76.2
2023-06-01T21:12:27.851Z,76.6
2023-06-01T21:15:15.582Z,77
2023-06-01T21:18:03.655Z,77.3
2023-06-01T21:20:51.456Z,76.6
2023-06-01T21:23:39.298Z,77.5
2023-06-01T21:26:27.222Z,77.9
2023-06-01T21:29:15.164Z,77.5
2023-06-01T21:32:02.899Z,78
2023-06-01T21:34:50.674Z,77.9
2023-06-01T21:37:38.312Z,78.4
2023-06-01T21:40:26.014Z,77.8
2023-06-01T21:43:13.729Z,78.2
2023-06-01T21:46:02.310Z,78.1
2023-06-01T21:48:50.364Z,78.3
2023-06-01T21:51:38.275Z,78.2
2023-06-01T21:54:25.930Z,78.4
2023-06-01T21:57:13.611Z,78.8
2023-06-01T22:00:01.254Z,78.5
2023-06-01T22:02:49.269Z,78.4
2023-06-01T22:05:37.107Z,78.3
2023-06-01T22:08:24.998Z,77.8
2023-06-01T22:11:12.776Z,78
2023-06-01T22:14:00.503Z,77.5
2023-06-01T22:16:48.507Z,77
2023-06-01T22:19:36.383Z,76.8
2023-06-01T22:22:31.648Z,76.6
2023-06-01T22:25:19.582Z,76.4
2023-06-01T22:28:07.416Z,75.7
2023-06-01T22:30:55.292Z,75.5
2023-06-01T22:33:43.083Z,75.3
2023-06-01T22:36:31.171Z,75.1
2023-06-01T22:39:18.849Z,75
2023-06-01T22:42:06.695Z,74.6
2023-06-01T22:44:54.519Z,74.4
2023-06-01T22:47:42.407Z,74.6
2023-06-01T22:50:30.190Z,74.2
2023-06-01T22:53:18.383Z,74.4
2023-06-01T22:56:06.812Z,74.5
2023-06-01T22:58:54.616Z,74.6
2023-06-01T23:01:42.619Z,74.7
2023-06-01T23:04:30.536Z,75
2023-06-01T23:07:18.268Z,75
2023-06-01T23:10:06.103Z,74.7
2023-06-01T23:12:53.834Z,74.6
2023-06-01T23:15:41.719Z,74.2
2023-06-01T23:18:29.624Z,74
2023-06-01T23:21:17.381Z,73.6
2023-06-01T23:24:05.122Z,73.5
2023-06-01T23:26:53.018Z,73.4
2023-06-01T23:29:40.740Z,73.6
2023-06-01T23:32:28.876Z,73.7
2023-06-01T23:35:16.724Z,73.3
2023-06-01T23:38:04.809Z,73.2
2023-06-01T23:40:52.537Z,73.5
2023-06-01T23:43:40.420Z,73.8
2023-06-01T23:46:28.271Z,74
2023-06-01T23:49:16.293Z,73.9
2023-06-01T23:52:04.130Z,73.5
2023-06-01T23:54:51.919Z,73.4
2023-06-01T23:57:39.641Z,73.2
